sensor_id;sensor_type;location;lat;lon;timestamp;P1;durP1;ratioP1;P2;durP2;ratioP2
46116;SDS011;32591;48.102;11.772;2023-08-30T00:01:03;11.35;;;7.78;;
46116;SDS011;32591;48.102;11.772;2023-08-30T00:03:31;12.55;;;7.18;;
46116;SDS011;32591;48.102;11.772;2023-08-30T00:06:01;10.77;;;7.53;;
46116;SDS011;32591;48.102;11.772;2023-08-30T00:08:29;9.40;;;7.25;;
46116;SDS011;32591;48.102;11.772;2023-08-30T00:10:58;10.57;;;7.68;;
46116;SDS011;32591;48.102;11.772;2023-08-30T00:13:28;9.70;;;7.30;;
46116;SDS011;32591;48.102;11.772;2023-08-30T00:15:56;9.63;;;7.50;;
46116;SDS011;32591;48.102;11.772;2023-08-30T00:18:23;11.07;;;7.75;;
46116;SDS011;32591;48.102;11.772;2023-08-30T00:20:50;14.00;;;8.57;;
46116;SDS011;32591;48.102;11.772;2023-08-30T00:23:18;10.98;;;7.53;;
46116;SDS011;32591;48.102;11.772;2023-08-30T00:25:45;11.77;;;8.55;;
46116;SDS011;32591;48.102;11.772;2023-08-30T00:28:13;13.70;;;9.38;;
46116;SDS011;32591;48.102;11.772;2023-08-30T00:30:40;13.88;;;9.43;;
46116;SDS011;32591;48.102;11.772;2023-08-30T00:33:07;13.43;;;8.90;;
46116;SDS011;32591;48.102;11.772;2023-08-30T00:35:34;16.42;;;10.02;;
46116;SDS011;32591;48.102;11.772;2023-08-30T00:38:01;13.93;;;9.77;;
46116;SDS011;32591;48.102;11.772;2023-08-30T00:40:28;15.55;;;10.05;;
46116;SDS011;32591;48.102;11.772;2023-08-30T00:42:56;14.38;;;9.73;;
46116;SDS011;32591;48.102;11.772;2023-08-30T00:45:24;13.20;;;9.80;;
46116;SDS011;32591;48.102;11.772;2023-08-30T00:47:52;15.38;;;9.25;;
46116;SDS011;32591;48.102;11.772;2023-08-30T00:50:19;13.60;;;9.25;;
46116;SDS011;32591;48.102;11.772;2023-08-30T00:52:46;15.70;;;10.20;;
46116;SDS011;32591;48.102;11.772;2023-08-30T00:55:14;13.60;;;9.45;;
46116;SDS011;32591;48.102;11.772;2023-08-30T00:57:41;13.55;;;8.77;;
46116;SDS011;32591;48.102;11.772;2023-08-30T01:00:08;13.75;;;9.18;;
46116;SDS011;32591;48.102;11.772;2023-08-30T01:02:38;14.77;;;8.85;;
46116;SDS011;32591;48.102;11.772;2023-08-30T01:05:06;12.10;;;8.55;;
46116;SDS011;32591;48.102;11.772;2023-08-30T01:07:34;11.85;;;9.07;;
46116;SDS011;32591;48.102;11.772;2023-08-30T01:10:01;10.73;;;7.65;;
46116;SDS011;32591;48.102;11.772;2023-08-30T01:12:29;11.20;;;8.00;;
46116;SDS011;32591;48.102;11.772;2023-08-30T01:15:06;12.18;;;8.73;;
46116;SDS011;32591;48.102;11.772;2023-08-30T01:17:39;10.10;;;7.22;;
46116;SDS011;32591;48.102;11.772;2023-08-30T01:20:08;10.82;;;8.05;;
46116;SDS011;32591;48.102;11.772;2023-08-30T01:22:42;10.65;;;7.53;;
46116;SDS011;32591;48.102;11.772;2023-08-30T01:25:17;9.27;;;7.00;;
46116;SDS011;32591;48.102;11.772;2023-08-30T01:27:58;10.20;;;7.40;;
46116;SDS011;32591;48.102;11.772;2023-08-30T01:30:28;10.05;;;7.85;;
46116;SDS011;32591;48.102;11.772;2023-08-30T01:32:57;14.45;;;7.53;;
46116;SDS011;32591;48.102;11.772;2023-08-30T01:35:27;11.20;;;7.78;;
46116;SDS011;32591;48.102;11.772;2023-08-30T01:37:58;9.07;;;6.45;;
46116;SDS011;32591;48.102;11.772;2023-08-30T01:40:27;11.45;;;7.40;;
46116;SDS011;32591;48.102;11.772;2023-08-30T01:42:59;10.50;;;7.22;;
46116;SDS011;32591;48.102;11.772;2023-08-30T01:45:28;10.25;;;7.10;;
46116;SDS011;32591;48.102;11.772;2023-08-30T01:47:56;12.18;;;7.03;;
46116;SDS011;32591;48.102;11.772;2023-08-30T01:50:24;9.55;;;7.45;;
46116;SDS011;32591;48.102;11.772;2023-08-30T01:52:52;10.25;;;6.85;;
46116;SDS011;32591;48.102;11.772;2023-08-30T01:55:21;10.85;;;7.55;;
46116;SDS011;32591;48.102;11.772;2023-08-30T01:57:49;9.07;;;6.63;;
46116;SDS011;32591;48.102;11.772;2023-08-30T02:00:17;9.13;;;6.38;;
46116;SDS011;32591;48.102;11.772;2023-08-30T02:02:45;7.60;;;5.88;;
46116;SDS011;32591;48.102;11.772;2023-08-30T02:05:13;8.00;;;5.47;;
46116;SDS011;32591;48.102;11.772;2023-08-30T02:07:43;9.65;;;6.90;;
46116;SDS011;32591;48.102;11.772;2023-08-30T02:10:17;7.80;;;6.03;;
46116;SDS011;32591;48.102;11.772;2023-08-30T02:12:51;8.85;;;6.63;;
46116;SDS011;32591;48.102;11.772;2023-08-30T02:15:22;8.52;;;5.97;;
46116;SDS011;32591;48.102;11.772;2023-08-30T02:17:52;8.80;;;5.60;;
46116;SDS011;32591;48.102;11.772;2023-08-30T02:20:19;10.55;;;6.95;;
46116;SDS011;32591;48.102;11.772;2023-08-30T02:22:47;6.90;;;5.30;;
46116;SDS011;32591;48.102;11.772;2023-08-30T02:25:13;9.55;;;6.72;;
46116;SDS011;32591;48.102;11.772;2023-08-30T02:27:40;9.95;;;6.97;;
46116;SDS011;32591;48.102;11.772;2023-08-30T02:30:08;9.70;;;6.72;;
46116;SDS011;32591;48.102;11.772;2023-08-30T02:32:37;8.15;;;6.15;;
46116;SDS011;32591;48.102;11.772;2023-08-30T02:35:05;9.07;;;6.15;;
46116;SDS011;32591;48.102;11.772;2023-08-30T02:37:32;7.00;;;5.30;;
46116;SDS011;32591;48.102;11.772;2023-08-30T02:39:59;7.30;;;5.70;;
46116;SDS011;32591;48.102;11.772;2023-08-30T02:42:28;8.55;;;5.60;;
46116;SDS011;32591;48.102;11.772;2023-08-30T02:44:55;10.00;;;6.22;;
46116;SDS011;32591;48.102;11.772;2023-08-30T02:47:22;8.38;;;5.78;;
46116;SDS011;32591;48.102;11.772;2023-08-30T02:49:51;8.95;;;5.80;;
46116;SDS011;32591;48.102;11.772;2023-08-30T02:52:18;7.03;;;5.57;;
46116;SDS011;32591;48.102;11.772;2023-08-30T02:54:45;8.60;;;6.18;;
46116;SDS011;32591;48.102;11.772;2023-08-30T02:57:11;8.45;;;5.70;;
46116;SDS011;32591;48.102;11.772;2023-08-30T02:59:39;7.22;;;5.40;;
46116;SDS011;32591;48.102;11.772;2023-08-30T03:02:05;6.88;;;4.85;;
46116;SDS011;32591;48.102;11.772;2023-08-30T03:04:33;7.00;;;5.40;;
46116;SDS011;32591;48.102;11.772;2023-08-30T03:07:01;8.98;;;6.05;;
46116;SDS011;32591;48.102;11.772;2023-08-30T03:09:28;9.43;;;6.00;;
46116;SDS011;32591;48.102;11.772;2023-08-30T03:11:55;7.78;;;5.93;;
46116;SDS011;32591;48.102;11.772;2023-08-30T03:14:22;8.13;;;4.88;;
46116;SDS011;32591;48.102;11.772;2023-08-30T03:16:49;6.75;;;5.07;;
46116;SDS011;32591;48.102;11.772;2023-08-30T03:19:16;7.82;;;5.88;;
46116;SDS011;32591;48.102;11.772;2023-08-30T03:21:43;10.50;;;5.03;;
46116;SDS011;32591;48.102;11.772;2023-08-30T03:24:11;7.90;;;5.13;;
46116;SDS011;32591;48.102;11.772;2023-08-30T03:26:42;7.75;;;5.20;;
46116;SDS011;32591;48.102;11.772;2023-08-30T03:29:09;8.60;;;5.22;;
46116;SDS011;32591;48.102;11.772;2023-08-30T03:31:36;6.00;;;4.50;;
46116;SDS011;32591;48.102;11.772;2023-08-30T03:34:03;7.40;;;4.93;;
46116;SDS011;32591;48.102;11.772;2023-08-30T03:36:30;7.57;;;5.25;;
46116;SDS011;32591;48.102;11.772;2023-08-30T03:38:57;7.43;;;5.18;;
46116;SDS011;32591;48.102;11.772;2023-08-30T03:41:25;8.15;;;5.90;;
46116;SDS011;32591;48.102;11.772;2023-08-30T03:43:52;6.15;;;4.88;;
46116;SDS011;32591;48.102;11.772;2023-08-30T03:46:19;6.82;;;4.60;;
46116;SDS011;32591;48.102;11.772;2023-08-30T03:48:46;7.90;;;5.57;;
46116;SDS011;32591;48.102;11.772;2023-08-30T03:51:13;7.35;;;5.20;;
46116;SDS011;32591;48.102;11.772;2023-08-30T03:53:40;6.80;;;5.05;;
46116;SDS011;32591;48.102;11.772;2023-08-30T03:56:07;6.03;;;4.65;;
46116;SDS011;32591;48.102;11.772;2023-08-30T03:58:35;9.02;;;5.22;;
46116;SDS011;32591;48.102;11.772;2023-08-30T04:01:03;7.18;;;4.60;;
46116;SDS011;32591;48.102;11.772;2023-08-30T04:03:31;7.20;;;5.18;;
46116;SDS011;32591;48.102;11.772;2023-08-30T04:05:59;6.82;;;4.90;;
46116;SDS011;32591;48.102;11.772;2023-08-30T04:08:26;7.90;;;4.95;;
46116;SDS011;32591;48.102;11.772;2023-08-30T04:10:53;7.57;;;4.57;;
46116;SDS011;32591;48.102;11.772;2023-08-30T04:13:20;6.15;;;4.38;;
46116;SDS011;32591;48.102;11.772;2023-08-30T04:15:49;8.98;;;5.63;;
46116;SDS011;32591;48.102;11.772;2023-08-30T04:18:17;7.70;;;5.10;;
46116;SDS011;32591;48.102;11.772;2023-08-30T04:20:44;6.90;;;4.90;;
46116;SDS011;32591;48.102;11.772;2023-08-30T04:23:13;6.70;;;4.90;;
46116;SDS011;32591;48.102;11.772;2023-08-30T04:25:43;6.13;;;4.68;;
46116;SDS011;32591;48.102;11.772;2023-08-30T04:28:11;6.88;;;4.97;;
46116;SDS011;32591;48.102;11.772;2023-08-30T04:30:38;6.10;;;4.32;;
46116;SDS011;32591;48.102;11.772;2023-08-30T04:33:06;5.85;;;3.65;;
46116;SDS011;32591;48.102;11.772;2023-08-30T04:35:34;7.47;;;4.28;;
46116;SDS011;32591;48.102;11.772;2023-08-30T04:38:01;5.60;;;4.47;;
46116;SDS011;32591;48.102;11.772;2023-08-30T04:40:29;6.55;;;4.25;;
46116;SDS011;32591;48.102;11.772;2023-08-30T04:42:56;5.40;;;4.13;;
46116;SDS011;32591;48.102;11.772;2023-08-30T04:45:24;6.47;;;4.10;;
46116;SDS011;32591;48.102;11.772;2023-08-30T04:47:51;7.15;;;4.78;;
46116;SDS011;32591;48.102;11.772;2023-08-30T04:50:19;6.50;;;4.82;;
46116;SDS011;32591;48.102;11.772;2023-08-30T04:52:46;5.20;;;4.10;;
46116;SDS011;32591;48.102;11.772;2023-08-30T04:55:13;6.38;;;3.78;;
46116;SDS011;32591;48.102;11.772;2023-08-30T04:57:40;5.38;;;3.80;;
46116;SDS011;32591;48.102;11.772;2023-08-30T05:00:10;5.40;;;3.58;;
46116;SDS011;32591;48.102;11.772;2023-08-30T05:02:38;7.35;;;4.03;;
46116;SDS011;32591;48.102;11.772;2023-08-30T05:05:08;6.38;;;4.10;;
46116;SDS011;32591;48.102;11.772;2023-08-30T05:07:37;5.72;;;3.65;;
46116;SDS011;32591;48.102;11.772;2023-08-30T05:10:04;6.47;;;3.75;;
46116;SDS011;32591;48.102;11.772;2023-08-30T05:12:34;5.35;;;4.00;;
46116;SDS011;32591;48.102;11.772;2023-08-30T05:15:01;4.85;;;3.60;;
46116;SDS011;32591;48.102;11.772;2023-08-30T05:17:29;5.53;;;4.03;;
46116;SDS011;32591;48.102;11.772;2023-08-30T05:19:58;5.18;;;3.80;;
46116;SDS011;32591;48.102;11.772;2023-08-30T05:22:25;5.57;;;4.00;;
46116;SDS011;32591;48.102;11.772;2023-08-30T05:24:53;5.82;;;3.83;;
46116;SDS011;32591;48.102;11.772;2023-08-30T05:27:20;5.85;;;3.90;;
46116;SDS011;32591;48.102;11.772;2023-08-30T05:29:47;6.18;;;4.10;;
46116;SDS011;32591;48.102;11.772;2023-08-30T05:32:14;5.68;;;3.60;;
46116;SDS011;32591;48.102;11.772;2023-08-30T05:34:41;5.95;;;3.55;;
46116;SDS011;32591;48.102;11.772;2023-08-30T05:37:08;5.18;;;3.80;;
46116;SDS011;32591;48.102;11.772;2023-08-30T05:39:35;5.32;;;3.50;;
46116;SDS011;32591;48.102;11.772;2023-08-30T05:42:03;5.15;;;3.75;;
46116;SDS011;32591;48.102;11.772;2023-08-30T05:44:31;5.50;;;3.97;;
46116;SDS011;32591;48.102;11.772;2023-08-30T05:46:58;5.63;;;4.07;;
46116;SDS011;32591;48.102;11.772;2023-08-30T05:49:25;6.22;;;4.35;;
46116;SDS011;32591;48.102;11.772;2023-08-30T05:51:52;6.40;;;4.35;;
46116;SDS011;32591;48.102;11.772;2023-08-30T05:54:19;6.47;;;4.15;;
46116;SDS011;32591;48.102;11.772;2023-08-30T05:56:46;6.32;;;4.57;;
46116;SDS011;32591;48.102;11.772;2023-08-30T05:59:14;6.00;;;4.22;;
46116;SDS011;32591;48.102;11.772;2023-08-30T06:01:42;4.90;;;3.70;;
46116;SDS011;32591;48.102;11.772;2023-08-30T06:04:09;5.80;;;4.30;;
46116;SDS011;32591;48.102;11.772;2023-08-30T06:06:36;5.28;;;4.32;;
46116;SDS011;32591;48.102;11.772;2023-08-30T06:09:04;5.32;;;3.60;;
46116;SDS011;32591;48.102;11.772;2023-08-30T06:11:32;5.90;;;4.20;;
46116;SDS011;32591;48.102;11.772;2023-08-30T06:13:59;6.00;;;4.57;;
46116;SDS011;32591;48.102;11.772;2023-08-30T06:16:27;7.60;;;4.70;;
46116;SDS011;32591;48.102;11.772;2023-08-30T06:18:54;6.53;;;4.63;;
46116;SDS011;32591;48.102;11.772;2023-08-30T06:21:23;6.05;;;5.07;;
46116;SDS011;32591;48.102;11.772;2023-08-30T06:23:50;6.65;;;4.70;;
46116;SDS011;32591;48.102;11.772;2023-08-30T06:26:18;5.80;;;4.10;;
46116;SDS011;32591;48.102;11.772;2023-08-30T06:28:45;7.28;;;5.45;;
46116;SDS011;32591;48.102;11.772;2023-08-30T06:31:12;6.95;;;4.90;;
46116;SDS011;32591;48.102;11.772;2023-08-30T06:33:40;8.27;;;4.90;;
46116;SDS011;32591;48.102;11.772;2023-08-30T06:36:07;6.60;;;4.72;;
46116;SDS011;32591;48.102;11.772;2023-08-30T06:38:36;6.20;;;4.47;;
46116;SDS011;32591;48.102;11.772;2023-08-30T06:41:03;5.95;;;4.80;;
46116;SDS011;32591;48.102;11.772;2023-08-30T06:43:30;6.07;;;4.50;;
46116;SDS011;32591;48.102;11.772;2023-08-30T06:45:57;5.57;;;4.22;;
46116;SDS011;32591;48.102;11.772;2023-08-30T06:48:24;6.03;;;3.88;;
46116;SDS011;32591;48.102;11.772;2023-08-30T06:50:56;8.50;;;4.78;;
46116;SDS011;32591;48.102;11.772;2023-08-30T06:53:23;6.13;;;4.38;;
46116;SDS011;32591;48.102;11.772;2023-08-30T06:55:56;6.20;;;4.45;;
46116;SDS011;32591;48.102;11.772;2023-08-30T06:58:24;8.00;;;4.75;;
46116;SDS011;32591;48.102;11.772;2023-08-30T07:00:51;7.43;;;4.22;;
46116;SDS011;32591;48.102;11.772;2023-08-30T07:03:18;7.10;;;4.55;;
46116;SDS011;32591;48.102;11.772;2023-08-30T07:05:45;6.25;;;5.18;;
46116;SDS011;32591;48.102;11.772;2023-08-30T07:08:14;7.43;;;4.78;;
46116;SDS011;32591;48.102;11.772;2023-08-30T07:10:41;8.10;;;5.47;;
46116;SDS011;32591;48.102;11.772;2023-08-30T07:13:08;7.43;;;5.55;;
46116;SDS011;32591;48.102;11.772;2023-08-30T07:15:37;7.82;;;5.10;;
46116;SDS011;32591;48.102;11.772;2023-08-30T07:18:05;8.68;;;5.43;;
46116;SDS011;32591;48.102;11.772;2023-08-30T07:20:32;6.95;;;4.88;;
46116;SDS011;32591;48.102;11.772;2023-08-30T07:23:00;6.60;;;5.05;;
46116;SDS011;32591;48.102;11.772;2023-08-30T07:25:28;7.00;;;5.30;;
46116;SDS011;32591;48.102;11.772;2023-08-30T07:27:56;7.22;;;5.30;;
46116;SDS011;32591;48.102;11.772;2023-08-30T07:30:23;6.63;;;4.82;;
46116;SDS011;32591;48.102;11.772;2023-08-30T07:32:50;7.68;;;5.97;;
46116;SDS011;32591;48.102;11.772;2023-08-30T07:35:17;6.40;;;5.10;;
46116;SDS011;32591;48.102;11.772;2023-08-30T07:37:44;11.18;;;5.90;;
46116;SDS011;32591;48.102;11.772;2023-08-30T07:40:11;6.65;;;4.57;;
46116;SDS011;32591;48.102;11.772;2023-08-30T07:42:39;5.68;;;4.10;;
46116;SDS011;32591;48.102;11.772;2023-08-30T07:45:07;6.45;;;4.68;;
46116;SDS011;32591;48.102;11.772;2023-08-30T07:47:35;6.32;;;4.93;;
46116;SDS011;32591;48.102;11.772;2023-08-30T07:50:04;7.10;;;5.47;;
46116;SDS011;32591;48.102;11.772;2023-08-30T07:52:32;6.60;;;4.90;;
46116;SDS011;32591;48.102;11.772;2023-08-30T07:54:59;6.38;;;5.00;;
46116;SDS011;32591;48.102;11.772;2023-08-30T07:57:26;6.88;;;5.88;;
46116;SDS011;32591;48.102;11.772;2023-08-30T07:59:55;7.53;;;5.70;;
46116;SDS011;32591;48.102;11.772;2023-08-30T08:02:22;7.13;;;5.88;;
46116;SDS011;32591;48.102;11.772;2023-08-30T08:04:49;7.72;;;5.10;;
46116;SDS011;32591;48.102;11.772;2023-08-30T08:07:17;9.13;;;4.82;;
46116;SDS011;32591;48.102;11.772;2023-08-30T08:09:44;6.97;;;5.57;;
46116;SDS011;32591;48.102;11.772;2023-08-30T08:12:11;6.90;;;4.95;;
46116;SDS011;32591;48.102;11.772;2023-08-30T08:14:37;6.47;;;5.15;;
46116;SDS011;32591;48.102;11.772;2023-08-30T08:17:06;9.15;;;6.22;;
46116;SDS011;32591;48.102;11.772;2023-08-30T08:19:33;8.55;;;5.05;;
46116;SDS011;32591;48.102;11.772;2023-08-30T08:22:04;7.53;;;5.68;;
46116;SDS011;32591;48.102;11.772;2023-08-30T08:24:31;6.13;;;4.72;;
46116;SDS011;32591;48.102;11.772;2023-08-30T08:26:57;6.00;;;5.07;;
46116;SDS011;32591;48.102;11.772;2023-08-30T08:29:26;7.53;;;5.07;;
46116;SDS011;32591;48.102;11.772;2023-08-30T08:31:53;6.68;;;5.18;;
46116;SDS011;32591;48.102;11.772;2023-08-30T08:34:21;6.28;;;5.03;;
46116;SDS011;32591;48.102;11.772;2023-08-30T08:36:49;9.02;;;4.60;;
46116;SDS011;32591;48.102;11.772;2023-08-30T08:39:16;5.78;;;4.75;;
46116;SDS011;32591;48.102;11.772;2023-08-30T08:41:43;5.35;;;4.53;;
46116;SDS011;32591;48.102;11.772;2023-08-30T08:44:12;6.32;;;4.53;;
46116;SDS011;32591;48.102;11.772;2023-08-30T08:46:40;5.00;;;3.50;;
46116;SDS011;32591;48.102;11.772;2023-08-30T08:49:08;4.43;;;3.40;;
46116;SDS011;32591;48.102;11.772;2023-08-30T08:51:40;5.13;;;4.10;;
46116;SDS011;32591;48.102;11.772;2023-08-30T08:54:08;4.57;;;3.42;;
46116;SDS011;32591;48.102;11.772;2023-08-30T08:56:36;5.63;;;3.92;;
46116;SDS011;32591;48.102;11.772;2023-08-30T08:59:05;4.80;;;3.40;;
46116;SDS011;32591;48.102;11.772;2023-08-30T09:01:33;6.82;;;3.88;;
46116;SDS011;32591;48.102;11.772;2023-08-30T09:04:03;14.23;;;5.00;;
46116;SDS011;32591;48.102;11.772;2023-08-30T09:06:32;6.18;;;4.20;;
46116;SDS011;32591;48.102;11.772;2023-08-30T09:09:01;5.38;;;3.80;;
46116;SDS011;32591;48.102;11.772;2023-08-30T09:11:30;5.43;;;3.72;;
46116;SDS011;32591;48.102;11.772;2023-08-30T09:13:57;5.38;;;4.13;;
46116;SDS011;32591;48.102;11.772;2023-08-30T09:16:24;5.80;;;4.25;;
46116;SDS011;32591;48.102;11.772;2023-08-30T09:18:57;5.53;;;3.90;;
46116;SDS011;32591;48.102;11.772;2023-08-30T09:21:25;6.45;;;4.20;;
46116;SDS011;32591;48.102;11.772;2023-08-30T09:24:01;4.40;;;3.70;;
46116;SDS011;32591;48.102;11.772;2023-08-30T09:26:30;5.57;;;3.90;;
46116;SDS011;32591;48.102;11.772;2023-08-30T09:29:01;4.50;;;3.33;;
46116;SDS011;32591;48.102;11.772;2023-08-30T09:31:32;5.38;;;4.18;;
46116;SDS011;32591;48.102;11.772;2023-08-30T09:34:01;5.25;;;3.88;;
46116;SDS011;32591;48.102;11.772;2023-08-30T09:36:34;4.55;;;3.60;;
46116;SDS011;32591;48.102;11.772;2023-08-30T09:39:06;6.53;;;4.03;;
46116;SDS011;32591;48.102;11.772;2023-08-30T09:41:35;4.47;;;3.75;;
46116;SDS011;32591;48.102;11.772;2023-08-30T09:44:06;4.07;;;3.47;;
46116;SDS011;32591;48.102;11.772;2023-08-30T09:46:39;4.55;;;3.83;;
46116;SDS011;32591;48.102;11.772;2023-08-30T09:49:08;4.25;;;3.45;;
46116;SDS011;32591;48.102;11.772;2023-08-30T09:51:36;4.68;;;3.65;;
46116;SDS011;32591;48.102;11.772;2023-08-30T09:54:10;4.63;;;3.30;;
46116;SDS011;32591;48.102;11.772;2023-08-30T09:56:42;3.97;;;2.60;;
46116;SDS011;32591;48.102;11.772;2023-08-30T09:59:10;3.67;;;2.97;;
46116;SDS011;32591;48.102;11.772;2023-08-30T10:01:39;6.60;;;3.63;;
46116;SDS011;32591;48.102;11.772;2023-08-30T10:04:07;5.85;;;3.70;;
46116;SDS011;32591;48.102;11.772;2023-08-30T10:06:35;4.47;;;3.35;;
46116;SDS011;32591;48.102;11.772;2023-08-30T10:09:03;3.90;;;3.10;;
46116;SDS011;32591;48.102;11.772;2023-08-30T10:11:34;3.53;;;2.88;;
46116;SDS011;32591;48.102;11.772;2023-08-30T10:14:02;3.75;;;2.90;;
46116;SDS011;32591;48.102;11.772;2023-08-30T10:16:30;5.10;;;2.70;;
46116;SDS011;32591;48.102;11.772;2023-08-30T10:19:11;3.65;;;2.90;;
46116;SDS011;32591;48.102;11.772;2023-08-30T10:21:43;3.60;;;2.40;;
46116;SDS011;32591;48.102;11.772;2023-08-30T10:24:11;2.42;;;2.03;;
46116;SDS011;32591;48.102;11.772;2023-08-30T10:26:43;2.60;;;2.13;;
46116;SDS011;32591;48.102;11.772;2023-08-30T10:29:12;4.07;;;2.45;;
46116;SDS011;32591;48.102;11.772;2023-08-30T10:31:40;2.83;;;2.35;;
46116;SDS011;32591;48.102;11.772;2023-08-30T10:34:12;2.63;;;2.08;;
46116;SDS011;32591;48.102;11.772;2023-08-30T10:36:41;2.85;;;1.95;;
46116;SDS011;32591;48.102;11.772;2023-08-30T10:39:13;2.00;;;1.60;;
46116;SDS011;32591;48.102;11.772;2023-08-30T10:41:56;3.97;;;1.95;;
46116;SDS011;32591;48.102;11.772;2023-08-30T10:44:23;4.82;;;2.25;;
46116;SDS011;32591;48.102;11.772;2023-08-30T10:46:54;2.50;;;1.92;;
46116;SDS011;32591;48.102;11.772;2023-08-30T10:49:21;2.00;;;1.65;;
46116;SDS011;32591;48.102;11.772;2023-08-30T10:51:55;3.17;;;1.83;;
46116;SDS011;32591;48.102;11.772;2023-08-30T10:54:24;2.05;;;1.80;;
46116;SDS011;32591;48.102;11.772;2023-08-30T10:56:56;2.30;;;1.80;;
46116;SDS011;32591;48.102;11.772;2023-08-30T10:59:26;2.70;;;1.98;;
46116;SDS011;32591;48.102;11.772;2023-08-30T11:01:54;2.17;;;1.50;;
46116;SDS011;32591;48.102;11.772;2023-08-30T11:04:22;2.53;;;1.88;;
46116;SDS011;32591;48.102;11.772;2023-08-30T11:06:50;3.17;;;1.83;;
46116;SDS011;32591;48.102;11.772;2023-08-30T11:09:18;3.53;;;2.00;;
46116;SDS011;32591;48.102;11.772;2023-08-30T11:11:47;2.58;;;1.65;;
46116;SDS011;32591;48.102;11.772;2023-08-30T11:14:17;3.25;;;1.48;;
46116;SDS011;32591;48.102;11.772;2023-08-30T11:16:45;2.83;;;2.03;;
46116;SDS011;32591;48.102;11.772;2023-08-30T11:19:12;2.53;;;1.92;;
46116;SDS011;32591;48.102;11.772;2023-08-30T11:21:39;2.70;;;1.67;;
46116;SDS011;32591;48.102;11.772;2023-08-30T11:24:09;2.20;;;1.50;;
46116;SDS011;32591;48.102;11.772;2023-08-30T11:26:37;2.95;;;1.40;;
46116;SDS011;32591;48.102;11.772;2023-08-30T11:29:04;2.25;;;1.40;;
46116;SDS011;32591;48.102;11.772;2023-08-30T11:31:33;2.97;;;1.50;;
46116;SDS011;32591;48.102;11.772;2023-08-30T11:34:01;1.55;;;1.45;;
46116;SDS011;32591;48.102;11.772;2023-08-30T11:36:29;2.60;;;1.48;;
46116;SDS011;32591;48.102;11.772;2023-08-30T11:38:58;3.13;;;1.50;;
46116;SDS011;32591;48.102;11.772;2023-08-30T11:41:25;3.90;;;1.55;;
46116;SDS011;32591;48.102;11.772;2023-08-30T11:43:52;3.08;;;1.70;;
46116;SDS011;32591;48.102;11.772;2023-08-30T11:46:20;3.83;;;2.05;;
46116;SDS011;32591;48.102;11.772;2023-08-30T11:48:49;2.65;;;1.63;;
46116;SDS011;32591;48.102;11.772;2023-08-30T11:51:18;2.42;;;1.80;;
46116;SDS011;32591;48.102;11.772;2023-08-30T11:53:46;2.63;;;1.60;;
46116;SDS011;32591;48.102;11.772;2023-08-30T11:56:14;3.03;;;1.55;;
46116;SDS011;32591;48.102;11.772;2023-08-30T11:58:42;2.25;;;1.50;;
46116;SDS011;32591;48.102;11.772;2023-08-30T12:01:09;1.95;;;1.38;;
46116;SDS011;32591;48.102;11.772;2023-08-30T12:03:37;1.95;;;1.40;;
46116;SDS011;32591;48.102;11.772;2023-08-30T12:06:10;2.58;;;1.23;;
46116;SDS011;32591;48.102;11.772;2023-08-30T12:08:37;1.75;;;1.60;;
46116;SDS011;32591;48.102;11.772;2023-08-30T12:11:04;1.40;;;1.30;;
46116;SDS011;32591;48.102;11.772;2023-08-30T12:13:31;1.80;;;1.05;;
46116;SDS011;32591;48.102;11.772;2023-08-30T12:16:08;1.98;;;1.27;;
46116;SDS011;32591;48.102;11.772;2023-08-30T12:18:41;2.38;;;1.05;;
46116;SDS011;32591;48.102;11.772;2023-08-30T12:21:08;3.15;;;1.45;;
46116;SDS011;32591;48.102;11.772;2023-08-30T12:23:35;1.95;;;1.20;;
46116;SDS011;32591;48.102;11.772;2023-08-30T12:26:02;1.60;;;1.20;;
46116;SDS011;32591;48.102;11.772;2023-08-30T12:28:31;2.03;;;1.50;;
46116;SDS011;32591;48.102;11.772;2023-08-30T12:31:01;2.25;;;1.60;;
46116;SDS011;32591;48.102;11.772;2023-08-30T12:33:30;2.95;;;2.00;;
46116;SDS011;32591;48.102;11.772;2023-08-30T12:35:57;3.42;;;1.45;;
46116;SDS011;32591;48.102;11.772;2023-08-30T12:38:24;2.13;;;1.52;;
46116;SDS011;32591;48.102;11.772;2023-08-30T12:41:01;1.65;;;1.30;;
46116;SDS011;32591;48.102;11.772;2023-08-30T12:43:28;1.92;;;1.30;;
46116;SDS011;32591;48.102;11.772;2023-08-30T12:45:55;2.60;;;1.60;;
46116;SDS011;32591;48.102;11.772;2023-08-30T12:48:22;2.40;;;1.38;;
46116;SDS011;32591;48.102;11.772;2023-08-30T12:50:50;2.25;;;1.45;;
46116;SDS011;32591;48.102;11.772;2023-08-30T12:53:17;1.50;;;1.20;;
46116;SDS011;32591;48.102;11.772;2023-08-30T12:55:44;2.70;;;1.40;;
46116;SDS011;32591;48.102;11.772;2023-08-30T12:58:12;2.15;;;1.25;;
46116;SDS011;32591;48.102;11.772;2023-08-30T13:00:39;1.45;;;1.10;;
46116;SDS011;32591;48.102;11.772;2023-08-30T13:03:06;3.22;;;1.55;;
46116;SDS011;32591;48.102;11.772;2023-08-30T13:05:33;2.38;;;1.60;;
46116;SDS011;32591;48.102;11.772;2023-08-30T13:08:02;2.03;;;1.45;;
46116;SDS011;32591;48.102;11.772;2023-08-30T13:10:30;3.55;;;1.20;;
46116;SDS011;32591;48.102;11.772;2023-08-30T13:12:57;1.85;;;1.30;;
46116;SDS011;32591;48.102;11.772;2023-08-30T13:15:24;1.95;;;1.20;;
46116;SDS011;32591;48.102;11.772;2023-08-30T13:17:50;3.08;;;1.65;;
46116;SDS011;32591;48.102;11.772;2023-08-30T13:20:18;3.30;;;1.50;;
46116;SDS011;32591;48.102;11.772;2023-08-30T13:22:45;1.73;;;1.23;;
46116;SDS011;32591;48.102;11.772;2023-08-30T13:25:13;2.90;;;1.60;;
46116;SDS011;32591;48.102;11.772;2023-08-30T13:27:40;1.60;;;1.30;;
46116;SDS011;32591;48.102;11.772;2023-08-30T13:30:07;2.15;;;1.60;;
46116;SDS011;32591;48.102;11.772;2023-08-30T13:32:35;3.65;;;1.60;;
46116;SDS011;32591;48.102;11.772;2023-08-30T13:35:03;3.35;;;1.63;;
46116;SDS011;32591;48.102;11.772;2023-08-30T13:37:30;2.80;;;1.60;;
46116;SDS011;32591;48.102;11.772;2023-08-30T13:39:57;2.30;;;1.58;;
46116;SDS011;32591;48.102;11.772;2023-08-30T13:42:26;1.85;;;1.33;;
46116;SDS011;32591;48.102;11.772;2023-08-30T13:44:52;3.38;;;1.70;;
46116;SDS011;32591;48.102;11.772;2023-08-30T13:47:19;3.05;;;1.63;;
46116;SDS011;32591;48.102;11.772;2023-08-30T13:49:46;3.05;;;1.98;;
46116;SDS011;32591;48.102;11.772;2023-08-30T13:52:13;2.53;;;1.98;;
46116;SDS011;32591;48.102;11.772;2023-08-30T13:54:41;3.67;;;1.70;;
46116;SDS011;32591;48.102;11.772;2023-08-30T13:57:08;3.15;;;1.98;;
46116;SDS011;32591;48.102;11.772;2023-08-30T13:59:36;4.05;;;1.95;;
46116;SDS011;32591;48.102;11.772;2023-08-30T14:02:03;2.38;;;1.60;;
46116;SDS011;32591;48.102;11.772;2023-08-30T14:04:30;2.35;;;1.63;;
46116;SDS011;32591;48.102;11.772;2023-08-30T14:06:59;3.33;;;1.77;;
46116;SDS011;32591;48.102;11.772;2023-08-30T14:09:26;2.33;;;1.63;;
46116;SDS011;32591;48.102;11.772;2023-08-30T14:11:53;2.85;;;1.60;;
46116;SDS011;32591;48.102;11.772;2023-08-30T14:14:21;3.38;;;1.65;;
46116;SDS011;32591;48.102;11.772;2023-08-30T14:16:49;3.00;;;1.98;;
46116;SDS011;32591;48.102;11.772;2023-08-30T14:19:16;3.05;;;2.00;;
46116;SDS011;32591;48.102;11.772;2023-08-30T14:21:43;2.63;;;1.75;;
46116;SDS011;32591;48.102;11.772;2023-08-30T14:24:10;2.47;;;1.70;;
46116;SDS011;32591;48.102;11.772;2023-08-30T14:26:37;4.68;;;1.85;;
46116;SDS011;32591;48.102;11.772;2023-08-30T14:29:04;3.25;;;2.10;;
46116;SDS011;32591;48.102;11.772;2023-08-30T14:31:31;3.05;;;2.13;;
46116;SDS011;32591;48.102;11.772;2023-08-30T14:33:59;3.20;;;2.67;;
46116;SDS011;32591;48.102;11.772;2023-08-30T14:36:27;3.83;;;3.15;;
46116;SDS011;32591;48.102;11.772;2023-08-30T14:38:54;7.70;;;3.75;;